createdAt,value
2017-12-20T00:00:00.219Z,6.33
2017-12-20T00:01:00.237Z,6.27
2017-12-20T00:02:00.252Z,6.30
2017-12-20T00:03:00.270Z,6.26
2017-12-20T00:04:00.286Z,6.28
2017-12-20T00:05:00.306Z,6.19
2017-12-20T00:06:00.376Z,6.24
2017-12-20T00:07:00.339Z,6.20
2017-12-20T00:08:00.355Z,6.28
2017-12-20T00:09:00.373Z,6.20
2017-12-20T00:10:00.393Z,6.27
2017-12-20T00:11:00.407Z,6.30
2017-12-20T00:12:00.440Z,6.31
2017-12-20T00:13:00.441Z,6.27
2017-12-20T00:14:00.457Z,6.24
2017-12-20T00:15:00.475Z,6.27
2017-12-20T00:16:00.491Z,6.24
2017-12-20T00:17:00.510Z,6.20
2017-12-20T00:18:00.527Z,6.20
2017-12-20T00:19:00.543Z,6.26
2017-12-20T00:20:00.565Z,6.20
2017-12-20T00:21:00.579Z,6.22
2017-12-20T00:22:00.594Z,6.31
2017-12-20T00:23:00.612Z,6.26
2017-12-20T00:24:00.629Z,6.24
2017-12-20T00:25:00.647Z,6.20
2017-12-20T00:26:00.664Z,6.27
2017-12-20T00:27:00.680Z,6.26
2017-12-20T00:28:00.699Z,6.26
2017-12-20T00:29:00.715Z,6.27
2017-12-20T00:30:00.732Z,6.28
2017-12-20T00:31:00.751Z,6.26
2017-12-20T00:32:00.765Z,6.30
2017-12-20T00:33:00.784Z,6.24
2017-12-20T00:34:00.799Z,6.20
2017-12-20T00:35:00.816Z,6.27
2017-12-20T00:36:00.834Z,6.17
2017-12-20T00:37:00.851Z,6.27
2017-12-20T00:38:00.868Z,6.27
2017-12-20T00:39:00.884Z,6.28
2017-12-20T00:40:00.902Z,6.26
2017-12-20T00:41:00.920Z,6.27
2017-12-20T00:42:00.935Z,6.30
2017-12-20T00:43:00.953Z,6.20
2017-12-20T00:44:00.971Z,6.30
2017-12-20T00:45:00.988Z,6.22
2017-12-20T00:46:01.004Z,6.27
2017-12-20T00:47:01.024Z,6.31
2017-12-20T00:48:01.040Z,6.28
2017-12-20T00:49:01.206Z,6.26
2017-12-20T00:50:01.074Z,6.19
2017-12-20T00:51:01.090Z,6.27
2017-12-20T00:52:01.108Z,6.30
2017-12-20T00:53:01.128Z,6.24
2017-12-20T00:56:01.176Z,6.17
2017-12-20T00:57:01.193Z,6.20
2017-12-20T00:58:01.210Z,6.26
2017-12-20T00:59:01.229Z,6.30
2017-12-20T01:00:01.244Z,6.27
2017-12-20T01:01:01.261Z,6.31
2017-12-20T01:02:01.278Z,6.28
2017-12-20T01:03:01.295Z,6.27
2017-12-20T01:04:01.313Z,6.22
2017-12-20T01:05:01.331Z,6.19
2017-12-20T01:06:01.345Z,6.22
2017-12-20T01:07:01.365Z,6.26
2017-12-20T01:08:01.382Z,6.26
2017-12-20T01:09:01.399Z,6.20
2017-12-20T01:10:01.414Z,6.19
2017-12-20T01:11:01.432Z,6.26
2017-12-20T01:12:01.449Z,6.20
2017-12-20T01:13:01.519Z,6.22
2017-12-20T01:14:01.483Z,6.22
2017-12-20T01:15:01.500Z,6.28
2017-12-20T01:16:01.518Z,6.22
2017-12-20T01:17:01.554Z,6.17
2017-12-20T01:18:01.552Z,6.20
2017-12-20T01:19:01.569Z,6.22
2017-12-20T01:20:01.587Z,6.26
2017-12-20T01:21:01.605Z,6.19
2017-12-20T01:22:01.621Z,6.30
2017-12-20T01:23:01.639Z,6.24
2017-12-20T01:24:01.655Z,6.27
2017-12-20T01:25:01.676Z,6.26
2017-12-20T01:26:01.689Z,6.20
2017-12-20T01:27:01.707Z,6.16
2017-12-20T01:28:01.724Z,6.24
2017-12-20T01:29:01.742Z,6.20
2017-12-20T01:30:01.758Z,6.27
2017-12-20T01:31:01.775Z,6.20
2017-12-20T01:32:01.792Z,6.28
2017-12-20T01:33:01.811Z,6.17
2017-12-20T01:34:01.827Z,6.20
2017-12-20T01:35:01.843Z,6.27
2017-12-20T01:36:01.862Z,6.19
2017-12-20T01:37:01.878Z,6.16
2017-12-20T01:38:01.895Z,6.26
2017-12-20T01:39:01.913Z,6.22
2017-12-20T01:40:01.932Z,6.26
2017-12-20T01:41:01.949Z,6.30
2017-12-20T01:42:01.964Z,6.20
2017-12-20T01:43:01.982Z,6.20
2017-12-20T01:44:01.998Z,6.28
2017-12-20T01:45:02.017Z,6.22
2017-12-20T01:46:02.032Z,6.28
2017-12-20T01:47:02.100Z,6.27
2017-12-20T01:48:02.070Z,6.16
2017-12-20T01:49:02.085Z,6.19
2017-12-20T01:50:02.103Z,6.17
2017-12-20T01:51:02.118Z,6.24
2017-12-20T01:52:02.135Z,6.24
2017-12-20T01:53:02.153Z,6.20
2017-12-20T01:54:02.169Z,6.24
2017-12-20T01:55:02.186Z,6.24
2017-12-20T01:56:02.203Z,6.17
2017-12-20T01:57:02.271Z,6.20
2017-12-20T01:58:02.237Z,6.24
2017-12-20T01:59:02.256Z,6.14
2017-12-20T02:00:02.272Z,6.27
2017-12-20T02:01:02.293Z,6.17
2017-12-20T02:02:02.304Z,6.20
2017-12-20T02:03:02.323Z,6.22
2017-12-20T02:04:02.340Z,6.11
2017-12-20T02:05:02.408Z,6.22
2017-12-20T02:06:02.373Z,6.28
2017-12-20T02:07:02.390Z,6.28
2017-12-20T02:08:02.408Z,6.24
2017-12-20T02:09:02.425Z,6.17
2017-12-20T02:10:02.442Z,6.11
2017-12-20T02:11:02.458Z,6.20
2017-12-20T02:12:02.477Z,6.26
2017-12-20T02:13:02.493Z,6.30
2017-12-20T02:14:02.510Z,6.17
2017-12-20T02:15:02.526Z,6.17
2017-12-20T02:16:02.544Z,6.20
2017-12-20T02:17:02.562Z,6.20
2017-12-20T02:18:02.577Z,6.27
2017-12-20T02:19:02.595Z,6.22
2017-12-20T02:20:02.613Z,6.27
2017-12-20T02:21:02.630Z,6.20
2017-12-20T02:22:02.645Z,6.20
2017-12-20T02:23:02.666Z,6.17
2017-12-20T02:24:02.681Z,6.19
2017-12-20T02:25:02.696Z,6.14
2017-12-20T02:26:02.713Z,6.14
2017-12-20T02:27:02.734Z,6.20
2017-12-20T02:28:02.753Z,6.20
2017-12-20T02:29:02.766Z,6.24
2017-12-20T02:30:02.787Z,6.24
2017-12-20T02:31:02.799Z,6.24
2017-12-20T02:32:02.817Z,6.22
2017-12-20T02:33:02.835Z,6.16
2017-12-20T02:34:02.851Z,6.22
2017-12-20T02:35:02.867Z,6.27
2017-12-20T02:36:02.884Z,6.24
2017-12-20T02:37:02.903Z,6.19
2017-12-20T02:38:02.918Z,6.11
2017-12-20T02:39:02.937Z,6.11
2017-12-20T02:40:02.958Z,6.24
2017-12-20T02:41:02.969Z,6.17
2017-12-20T02:42:02.985Z,6.22
2017-12-20T02:43:03.003Z,6.27
2017-12-20T02:44:03.020Z,6.20
2017-12-20T02:45:03.038Z,6.24
2017-12-20T02:46:03.055Z,6.20
2017-12-20T02:47:03.071Z,6.17
2017-12-20T02:48:03.088Z,6.20
2017-12-20T02:49:03.106Z,6.24
2017-12-20T02:50:03.121Z,6.22
2017-12-20T02:51:03.138Z,6.24
2017-12-20T02:52:03.156Z,6.22
2017-12-20T02:53:03.174Z,6.24
2017-12-20T02:54:03.239Z,6.24
2017-12-20T02:55:03.207Z,6.26
2017-12-20T02:56:03.224Z,6.20
2017-12-20T02:57:03.241Z,6.20
2017-12-20T02:58:03.257Z,6.24
2017-12-20T02:59:03.275Z,6.27
2017-12-20T03:00:03.291Z,6.24
2017-12-20T03:01:03.310Z,6.20
2017-12-20T03:02:03.325Z,6.20
2017-12-20T03:03:03.393Z,6.26
2017-12-20T03:04:03.360Z,6.22
2017-12-20T03:05:03.378Z,6.07
2017-12-20T03:06:03.394Z,6.17
2017-12-20T03:07:03.411Z,6.26
2017-12-20T03:08:03.428Z,6.20
2017-12-20T03:09:03.446Z,6.20
2017-12-20T03:10:03.461Z,6.17
2017-12-20T03:11:03.479Z,6.14
2017-12-20T03:12:03.598Z,6.27
2017-12-20T03:13:03.514Z,6.26
2017-12-20T03:14:03.530Z,6.24
2017-12-20T03:15:03.547Z,6.27
2017-12-20T03:16:03.566Z,6.28
2017-12-20T03:17:03.582Z,6.20
2017-12-20T03:18:03.601Z,6.17
2017-12-20T03:19:03.616Z,6.11
2017-12-20T03:20:03.633Z,6.28
2017-12-20T03:21:03.651Z,6.19
2017-12-20T03:22:03.674Z,6.26
2017-12-20T03:23:03.685Z,6.26
2017-12-20T03:24:03.702Z,6.26
2017-12-20T03:25:03.719Z,6.22
2017-12-20T03:26:03.736Z,6.24
2017-12-20T03:27:03.752Z,6.22
2017-12-20T03:28:03.769Z,6.16
2017-12-20T03:29:03.787Z,6.19
2017-12-20T03:30:03.805Z,6.24
2017-12-20T03:31:03.821Z,6.24
2017-12-20T03:32:03.838Z,6.27
2017-12-20T03:33:03.855Z,6.26
2017-12-20T03:34:03.873Z,6.24
2017-12-20T03:35:03.892Z,6.27
2017-12-20T03:36:03.907Z,6.24
2017-12-20T03:37:03.924Z,6.22
2017-12-20T03:38:03.990Z,6.27
2017-12-20T03:39:03.958Z,6.20
2017-12-20T03:40:03.976Z,6.20
2017-12-20T03:41:03.993Z,6.20
2017-12-20T03:42:04.008Z,6.22
2017-12-20T03:43:04.025Z,6.17
2017-12-20T03:44:04.043Z,6.22
2017-12-20T03:45:04.061Z,6.24
2017-12-20T03:46:04.079Z,6.16
2017-12-20T03:47:04.095Z,6.12
2017-12-20T03:48:04.111Z,6.20
2017-12-20T03:49:04.128Z,6.19
2017-12-20T03:50:04.145Z,6.27
2017-12-20T03:51:04.191Z,6.22
2017-12-20T03:52:04.180Z,6.26
2017-12-20T03:53:04.198Z,6.28
2017-12-20T03:54:04.214Z,6.19
2017-12-20T03:55:04.231Z,6.24
2017-12-20T03:56:04.248Z,6.24
2017-12-20T03:57:04.267Z,6.20
2017-12-20T03:58:04.285Z,6.17
2017-12-20T03:59:04.299Z,6.30
2017-12-20T04:00:04.316Z,6.22
2017-12-20T04:01:04.335Z,6.24
2017-12-20T04:02:04.352Z,6.24
2017-12-20T04:03:04.369Z,6.28
2017-12-20T04:04:04.386Z,6.27
2017-12-20T04:05:04.404Z,6.28
2017-12-20T04:06:04.421Z,6.30
2017-12-20T04:07:04.439Z,6.30
2017-12-20T04:08:04.456Z,6.27
2017-12-20T04:09:04.472Z,6.28
2017-12-20T04:10:04.490Z,6.33
2017-12-20T04:11:04.508Z,6.35
2017-12-20T04:12:04.525Z,6.30
2017-12-20T04:13:04.548Z,6.26
2017-12-20T04:14:04.559Z,6.33
2017-12-20T04:15:04.581Z,6.26
2017-12-20T04:16:04.622Z,6.35
2017-12-20T04:17:04.611Z,6.27
2017-12-20T04:18:04.627Z,6.27
2017-12-20T04:19:04.647Z,6.33
2017-12-20T04:20:04.663Z,6.30
2017-12-20T04:21:04.681Z,6.26
2017-12-20T04:22:04.698Z,6.35
2017-12-20T04:23:04.714Z,6.31
2017-12-20T04:24:04.733Z,6.31
2017-12-20T04:25:04.800Z,6.30
2017-12-20T04:26:04.766Z,6.30
2017-12-20T04:27:04.783Z,6.30
2017-12-20T04:28:04.801Z,6.30
2017-12-20T04:29:04.818Z,6.28
2017-12-20T04:30:04.835Z,6.31
2017-12-20T04:31:04.853Z,6.27
2017-12-20T04:32:04.870Z,6.28
2017-12-20T04:33:04.889Z,6.31
2017-12-20T04:34:04.904Z,6.38
2017-12-20T04:35:04.922Z,6.33
2017-12-20T04:36:04.941Z,6.30
2017-12-20T04:37:05.014Z,6.35
2017-12-20T04:38:04.975Z,6.33
2017-12-20T04:39:04.991Z,6.30
2017-12-20T04:40:05.008Z,6.20
2017-12-20T04:41:05.028Z,6.33
2017-12-20T04:42:05.042Z,6.27
2017-12-20T04:43:05.110Z,6.27
2017-12-20T04:44:05.079Z,6.30
2017-12-20T04:45:05.095Z,6.35
2017-12-20T04:46:05.113Z,6.28
2017-12-20T04:47:05.129Z,6.28
2017-12-20T04:48:05.198Z,6.33
2017-12-20T04:49:05.169Z,6.31
2017-12-20T04:50:05.181Z,6.31
2017-12-20T04:51:05.199Z,6.31
2017-12-20T04:52:05.215Z,6.31
2017-12-20T04:53:05.234Z,6.30
2017-12-20T04:54:05.250Z,6.28
2017-12-20T04:55:05.268Z,6.35
2017-12-20T04:56:05.284Z,6.35
2017-12-20T04:57:05.302Z,6.26
2017-12-20T04:58:05.319Z,6.30
2017-12-20T04:59:05.335Z,6.30
2017-12-20T05:00:05.353Z,6.30
2017-12-20T05:01:05.370Z,6.33
2017-12-20T05:02:05.388Z,6.36
2017-12-20T05:03:05.406Z,6.33
2017-12-20T05:04:05.423Z,6.35
2017-12-20T05:05:05.509Z,6.26
2017-12-20T05:06:05.456Z,6.30
2017-12-20T05:07:05.473Z,6.30
2017-12-20T05:08:05.492Z,6.31
2017-12-20T05:09:05.509Z,6.33
2017-12-20T05:10:05.525Z,6.28
2017-12-20T05:11:05.543Z,6.36
2017-12-20T05:12:05.559Z,6.35
2017-12-20T05:13:05.578Z,6.38
2017-12-20T05:14:05.594Z,6.36
2017-12-20T05:15:05.610Z,6.35
2017-12-20T05:16:05.628Z,6.28
2017-12-20T05:17:05.644Z,6.30
2017-12-20T05:18:05.661Z,6.31
2017-12-20T05:19:05.680Z,6.24
2017-12-20T05:20:05.701Z,6.31
2017-12-20T05:21:05.721Z,6.26
2017-12-20T05:22:05.729Z,6.26
2017-12-20T05:23:05.746Z,6.27
2017-12-20T05:24:05.764Z,6.31
2017-12-20T05:25:05.781Z,6.26
2017-12-20T05:26:05.798Z,6.35
2017-12-20T05:27:05.814Z,6.38
2017-12-20T05:28:05.831Z,6.30
2017-12-20T05:29:05.853Z,6.35
2017-12-20T05:30:05.866Z,6.33
2017-12-20T05:31:05.882Z,6.26
2017-12-20T05:32:05.900Z,6.30
2017-12-20T05:33:05.917Z,6.28
2017-12-20T05:34:05.934Z,6.33
2017-12-20T05:35:05.951Z,6.33
2017-12-20T05:36:05.969Z,6.33
2017-12-20T05:37:05.986Z,6.36
2017-12-20T05:38:06.002Z,6.31
2017-12-20T05:39:06.019Z,6.27
2017-12-20T05:40:06.036Z,6.31
2017-12-20T05:41:06.055Z,6.36
2017-12-20T05:42:06.071Z,6.28
2017-12-20T05:43:06.086Z,6.33
2017-12-20T05:44:06.108Z,6.39
2017-12-20T05:45:06.123Z,6.38
2017-12-20T05:46:06.138Z,6.33
2017-12-20T05:47:06.157Z,6.35
2017-12-20T05:48:06.174Z,6.33
2017-12-20T05:49:06.191Z,6.30
2017-12-20T05:50:06.207Z,6.31
2017-12-20T05:51:06.274Z,6.31
2017-12-20T05:52:06.242Z,6.30
2017-12-20T05:53:06.259Z,6.33
2017-12-20T05:54:06.277Z,6.30
2017-12-20T05:55:06.293Z,6.41
2017-12-20T05:56:06.309Z,6.44
2017-12-20T05:57:06.326Z,6.39
2017-12-20T05:58:06.343Z,6.36
2017-12-20T05:59:06.360Z,6.42
2017-12-20T06:00:06.378Z,6.42
2017-12-20T06:01:06.396Z,6.42
2017-12-20T06:02:06.418Z,6.33
2017-12-20T06:03:06.480Z,6.42
2017-12-20T06:04:06.456Z,6.42
2017-12-20T06:05:06.465Z,6.42
2017-12-20T06:06:06.480Z,6.42
2017-12-20T06:07:06.548Z,6.42
2017-12-20T06:08:06.515Z,6.44
2017-12-20T06:09:06.532Z,6.39
2017-12-20T06:10:06.550Z,6.41
2017-12-20T06:11:06.570Z,6.38
2017-12-20T06:12:06.586Z,6.48
2017-12-20T06:13:06.600Z,6.51
2017-12-20T06:14:06.623Z,6.42
2017-12-20T06:15:06.633Z,6.46
2017-12-20T06:16:06.652Z,6.49
2017-12-20T06:17:06.669Z,6.39
2017-12-20T06:18:06.684Z,6.39
2017-12-20T06:19:06.703Z,6.46
2017-12-20T06:20:06.720Z,6.46
2017-12-20T06:21:06.741Z,6.38
2017-12-20T06:22:06.753Z,6.42
2017-12-20T06:23:06.773Z,6.45
2017-12-20T06:24:06.788Z,6.42
2017-12-20T06:25:06.804Z,6.42
2017-12-20T06:26:06.820Z,6.42
2017-12-20T06:27:06.839Z,6.42
2017-12-20T06:28:06.855Z,6.49
2017-12-20T06:29:06.872Z,6.45
2017-12-20T06:30:06.890Z,6.46
2017-12-20T06:31:06.907Z,6.48
2017-12-20T06:32:06.923Z,6.39
2017-12-20T06:33:06.942Z,6.44
2017-12-20T06:34:06.957Z,6.49
2017-12-20T06:35:06.976Z,6.48
2017-12-20T06:36:06.992Z,6.45
2017-12-20T06:37:07.010Z,6.49
2017-12-20T06:38:07.024Z,6.42
2017-12-20T06:39:07.042Z,6.42
2017-12-20T06:40:07.060Z,6.39
2017-12-20T06:41:07.078Z,6.52
2017-12-20T06:42:07.094Z,6.57
2017-12-20T06:43:07.111Z,6.52
2017-12-20T06:44:07.127Z,6.54
2017-12-20T06:45:07.145Z,6.54
2017-12-20T06:46:07.161Z,6.62
2017-12-20T06:47:07.179Z,6.54
2017-12-20T06:48:07.196Z,6.56
2017-12-20T06:49:07.214Z,6.48
2017-12-20T06:50:07.228Z,6.57
2017-12-20T06:51:07.248Z,6.54
2017-12-20T06:52:07.272Z,6.60
2017-12-20T06:53:07.281Z,6.62
2017-12-20T06:54:07.297Z,6.57
2017-12-20T06:55:07.316Z,6.64
2017-12-20T06:56:07.332Z,6.57
2017-12-20T06:57:07.353Z,6.54
2017-12-20T06:58:07.366Z,6.42
2017-12-20T06:59:07.382Z,6.49
2017-12-20T07:00:07.400Z,6.45
2017-12-20T07:01:07.419Z,6.42
2017-12-20T07:02:07.435Z,6.46
2017-12-20T07:03:07.451Z,6.54
2017-12-20T07:04:07.470Z,6.52
2017-12-20T07:05:07.487Z,6.41
2017-12-20T07:06:07.502Z,6.46
2017-12-20T07:07:07.521Z,6.49
2017-12-20T07:08:07.538Z,6.51
2017-12-20T07:09:07.556Z,6.42
2017-12-20T07:10:07.571Z,6.56
2017-12-20T07:11:07.590Z,6.66
2017-12-20T07:12:07.607Z,6.59
2017-12-20T07:13:07.623Z,6.56
2017-12-20T07:14:53.809Z,6.57
2017-12-20T07:15:07.657Z,6.56
2017-12-20T07:16:07.675Z,6.46
2017-12-20T07:17:07.693Z,6.64
2017-12-20T07:18:07.710Z,6.63
2017-12-20T07:19:07.726Z,6.57
2017-12-20T07:20:07.745Z,6.62
2017-12-20T07:21:07.761Z,6.63
2017-12-20T07:22:07.778Z,6.57
2017-12-20T07:23:07.795Z,6.60
2017-12-20T07:24:07.817Z,6.63
2017-12-20T07:25:07.830Z,6.57
2017-12-20T07:26:07.846Z,6.56
2017-12-20T07:27:07.862Z,6.62
2017-12-20T07:28:07.881Z,6.78
2017-12-20T07:29:07.897Z,6.66
2017-12-20T07:30:07.913Z,6.60
2017-12-20T07:31:07.931Z,6.56
2017-12-20T07:32:07.949Z,6.67
2017-12-20T07:33:07.966Z,6.67
2017-12-20T07:34:07.982Z,6.62
2017-12-20T07:35:08.063Z,6.56
2017-12-20T07:36:08.019Z,6.63
2017-12-20T07:37:08.035Z,6.63
2017-12-20T07:38:08.051Z,6.67
2017-12-20T07:39:08.069Z,6.64
2017-12-20T07:40:08.087Z,6.67
2017-12-20T07:41:08.105Z,6.64
2017-12-20T07:42:08.120Z,6.74
2017-12-20T07:43:08.138Z,6.64
2017-12-20T07:44:08.206Z,6.63
2017-12-20T07:45:08.175Z,6.75
2017-12-20T07:46:08.191Z,6.64
2017-12-20T07:47:08.207Z,6.67
2017-12-20T07:48:08.226Z,6.72
2017-12-20T07:49:08.243Z,6.59
2017-12-20T07:50:08.308Z,6.62
2017-12-20T07:51:08.276Z,6.56
2017-12-20T07:52:08.294Z,6.51
2017-12-20T07:53:08.315Z,6.72
2017-12-20T07:54:08.329Z,6.59
2017-12-20T07:55:08.347Z,6.60
2017-12-20T07:56:08.365Z,6.56
2017-12-20T07:57:08.420Z,6.60
2017-12-20T07:58:08.420Z,6.67
2017-12-20T07:59:08.464Z,6.63
2017-12-20T08:00:08.434Z,6.59
2017-12-20T08:01:08.639Z,6.67
2017-12-20T08:02:08.480Z,6.59
2017-12-20T08:03:08.499Z,6.60
2017-12-20T08:04:08.569Z,6.66
2017-12-20T08:05:08.528Z,6.56
2017-12-20T08:06:08.542Z,6.59
2017-12-20T08:07:08.557Z,6.62
2017-12-20T08:08:08.596Z,6.60
2017-12-20T08:09:08.594Z,6.70
2017-12-20T08:10:08.605Z,6.79
2017-12-20T08:11:08.630Z,6.70
2017-12-20T08:12:08.658Z,6.64
2017-12-20T08:13:08.732Z,6.78
2017-12-20T08:14:08.741Z,6.78
2017-12-20T08:15:08.695Z,6.74
2017-12-20T08:16:08.808Z,6.69
2017-12-20T08:17:08.817Z,6.70
2017-12-20T08:18:08.751Z,6.75
2017-12-20T08:19:08.778Z,6.78
2017-12-20T08:20:08.802Z,6.77
2017-12-20T08:21:08.997Z,6.84
2017-12-20T08:22:08.826Z,6.82
2017-12-20T08:23:08.837Z,6.84
2017-12-20T08:24:08.873Z,6.95
2017-12-20T08:25:08.862Z,6.85
2017-12-20T08:26:09.129Z,6.89
2017-12-20T08:27:08.896Z,6.89
2017-12-20T08:28:08.913Z,6.92
2017-12-20T08:29:08.941Z,6.93
2017-12-20T08:30:08.964Z,6.95
2017-12-20T08:31:09.111Z,6.92
2017-12-20T08:32:09.008Z,6.93
2017-12-20T08:33:09.076Z,6.92
2017-12-20T08:34:09.020Z,6.99
2017-12-20T08:35:09.034Z,6.93
2017-12-20T08:36:09.051Z,6.93
2017-12-20T08:37:09.088Z,6.99
2017-12-20T08:38:09.097Z,6.93
2017-12-20T08:39:09.201Z,6.95
2017-12-20T08:40:09.127Z,6.93
2017-12-20T08:41:09.151Z,6.96
2017-12-20T08:42:09.159Z,6.95
2017-12-20T08:43:09.175Z,6.95
2017-12-20T08:44:09.302Z,6.93
2017-12-20T08:45:09.209Z,6.92
2017-12-20T08:46:09.268Z,6.81
2017-12-20T08:47:09.243Z,6.81
2017-12-20T08:48:09.275Z,6.85
2017-12-20T08:49:09.280Z,6.93
2017-12-20T08:50:09.295Z,6.82
2017-12-20T08:51:09.408Z,6.84
2017-12-20T08:52:09.341Z,6.84
2017-12-20T08:53:09.387Z,6.85
2017-12-20T08:54:09.368Z,6.89
2017-12-20T08:55:09.408Z,6.89
2017-12-20T08:56:09.415Z,6.89
2017-12-20T08:57:09.466Z,6.85
2017-12-20T08:58:09.436Z,6.96
2017-12-20T08:59:09.456Z,6.97
2017-12-20T09:00:09.523Z,6.97
2017-12-20T09:01:09.490Z,6.99
2017-12-20T09:02:09.505Z,7.05
2017-12-20T09:03:09.526Z,7.10
2017-12-20T09:04:09.599Z,7.03
2017-12-20T09:05:09.621Z,7.10
2017-12-20T09:06:09.576Z,7.10
2017-12-20T09:07:09.592Z,7.10
2017-12-20T09:08:09.663Z,7.11
2017-12-20T09:09:09.737Z,7.03
2017-12-20T09:10:09.720Z,7.15
2017-12-20T09:11:09.759Z,7.23
2017-12-20T09:12:09.689Z,7.21
2017-12-20T09:13:09.743Z,7.23
2017-12-20T09:14:09.872Z,7.23
2017-12-20T09:15:09.741Z,7.31
2017-12-20T09:16:09.751Z,7.25
2017-12-20T09:17:09.930Z,7.32
2017-12-20T09:18:09.786Z,7.28
2017-12-20T09:19:09.822Z,7.33
2017-12-20T09:20:09.825Z,7.31
2017-12-20T09:21:09.846Z,7.39
2017-12-20T09:22:09.861Z,7.31
2017-12-20T09:23:09.937Z,7.33
2017-12-20T09:24:09.951Z,7.39
2017-12-20T09:25:09.940Z,7.29
2017-12-20T09:26:09.959Z,7.32
2017-12-20T09:27:10.018Z,7.33
2017-12-20T09:28:10.016Z,7.29
2017-12-20T09:29:09.996Z,7.28
2017-12-20T09:30:09.998Z,7.32
2017-12-20T09:31:10.017Z,7.38
2017-12-20T09:32:10.039Z,7.33
2017-12-20T09:33:10.140Z,7.33
2017-12-20T09:34:10.070Z,7.36
2017-12-20T09:35:10.104Z,7.28
2017-12-20T09:36:10.109Z,7.33
2017-12-20T09:37:10.126Z,7.29
2017-12-20T09:38:10.232Z,7.35
2017-12-20T09:39:10.235Z,7.20
2017-12-20T09:40:10.185Z,7.17
2017-12-20T09:41:10.245Z,7.23
2017-12-20T09:42:10.293Z,7.31
2017-12-20T09:43:10.248Z,7.28
2017-12-20T09:44:10.320Z,7.32
2017-12-20T09:45:10.272Z,7.35
2017-12-20T09:46:10.298Z,7.32
2017-12-20T09:47:10.336Z,7.35
2017-12-20T09:48:10.876Z,7.24
2017-12-20T09:49:10.456Z,7.32
2017-12-20T09:50:10.420Z,7.42
2017-12-20T09:51:10.415Z,7.29
2017-12-20T09:52:10.416Z,7.31
2017-12-20T09:53:10.416Z,7.31
2017-12-20T09:54:10.454Z,7.39
2017-12-20T09:55:10.572Z,7.32
2017-12-20T09:56:10.468Z,7.39
2017-12-20T09:57:10.490Z,7.35
2017-12-20T09:58:10.503Z,7.40
2017-12-20T09:59:10.569Z,7.39
2017-12-20T10:00:10.534Z,7.36
2017-12-20T10:01:10.642Z,7.40
2017-12-20T10:02:10.597Z,7.39
2017-12-20T10:03:10.588Z,7.36
2017-12-20T10:04:10.607Z,7.42
2017-12-20T10:05:10.625Z,7.39
2017-12-20T10:06:10.643Z,7.29
2017-12-20T10:07:10.687Z,7.39
2017-12-20T10:08:10.679Z,7.31
2017-12-20T10:09:10.696Z,7.35
2017-12-20T10:10:10.713Z,7.51
2017-12-20T10:11:10.732Z,7.42
2017-12-20T10:12:10.750Z,7.51
2017-12-20T10:13:10.768Z,7.53
2017-12-20T10:14:10.786Z,7.54
2017-12-20T10:15:10.804Z,7.58
2017-12-20T10:16:10.821Z,7.54
2017-12-20T10:17:10.840Z,7.48
2017-12-20T10:18:10.859Z,7.54
2017-12-20T10:19:10.877Z,7.51
2017-12-20T10:20:10.893Z,7.54
2017-12-20T10:21:10.913Z,7.47
2017-12-20T10:22:10.931Z,7.50
2017-12-20T10:23:10.954Z,7.56
2017-12-20T10:24:10.966Z,7.58
2017-12-20T10:25:10.985Z,7.51
2017-12-20T10:26:11.002Z,7.50
2017-12-20T10:27:11.021Z,7.50
2017-12-20T10:28:11.038Z,7.57
2017-12-20T10:29:11.057Z,7.48
2017-12-20T10:30:11.136Z,7.61
2017-12-20T10:31:11.092Z,7.61
2017-12-20T10:32:11.111Z,7.50
2017-12-20T10:33:11.129Z,7.51
2017-12-20T10:34:11.147Z,7.53
2017-12-20T10:35:11.207Z,7.50
2017-12-20T10:36:11.183Z,7.50
2017-12-20T10:37:11.251Z,7.50
2017-12-20T10:38:11.219Z,7.53
2017-12-20T10:39:11.237Z,7.45
2017-12-20T10:40:11.256Z,7.51
2017-12-20T10:41:11.273Z,7.48
2017-12-20T10:42:11.292Z,7.51
2017-12-20T10:43:11.309Z,7.50
2017-12-20T10:44:11.326Z,7.40
2017-12-20T10:45:11.346Z,7.42
2017-12-20T10:46:11.362Z,7.35
2017-12-20T10:47:11.381Z,7.33
2017-12-20T10:48:11.405Z,7.43
2017-12-20T10:49:11.418Z,7.36
2017-12-20T10:50:11.488Z,7.31
2017-12-20T10:51:11.453Z,7.36
2017-12-20T10:52:11.471Z,7.32
2017-12-20T10:53:11.489Z,7.31
2017-12-20T10:54:11.507Z,7.33
2017-12-20T10:55:11.524Z,7.40
2017-12-20T10:56:11.543Z,7.39
2017-12-20T10:57:11.559Z,7.33
2017-12-20T10:58:11.577Z,7.43
2017-12-20T10:59:11.600Z,7.40
2017-12-20T11:00:11.613Z,7.42
2017-12-20T11:01:11.631Z,7.38
2017-12-20T11:02:11.703Z,7.36
2017-12-20T11:03:11.668Z,7.38
2017-12-20T11:04:11.683Z,7.47
2017-12-20T11:05:11.702Z,7.36
2017-12-20T11:06:11.719Z,7.39
2017-12-20T11:07:11.735Z,7.36
2017-12-20T11:08:11.753Z,7.50
2017-12-20T11:09:11.781Z,7.53
2017-12-20T11:10:11.790Z,7.48
2017-12-20T11:11:11.806Z,7.63
2017-12-20T11:12:11.824Z,7.61
2017-12-20T11:13:11.844Z,7.61
2017-12-20T11:14:11.860Z,7.53
2017-12-20T11:15:11.877Z,7.51
2017-12-20T11:16:11.894Z,7.51
2017-12-20T11:17:11.913Z,7.48
2017-12-20T11:18:11.933Z,7.54
2017-12-20T11:19:11.949Z,7.57
2017-12-20T11:20:11.966Z,7.58
2017-12-20T11:21:11.984Z,7.72
2017-12-20T11:22:12.005Z,7.83
2017-12-20T11:23:12.020Z,7.85
2017-12-20T11:24:12.039Z,7.85
2017-12-20T11:25:12.057Z,7.80
2017-12-20T11:26:12.074Z,7.94
2017-12-20T11:27:12.090Z,7.87
2017-12-20T11:28:12.114Z,7.83
2017-12-20T11:29:12.128Z,7.88
2017-12-20T11:30:12.146Z,7.79
2017-12-20T11:31:12.163Z,7.79
2017-12-20T11:32:12.182Z,7.79
2017-12-20T11:33:12.201Z,7.73
2017-12-20T11:34:12.216Z,7.85
2017-12-20T11:35:12.236Z,7.80
2017-12-20T11:36:12.254Z,7.83
2017-12-20T11:37:12.272Z,7.80
2017-12-20T11:38:12.341Z,7.79
2017-12-20T11:39:12.307Z,7.85
2017-12-20T11:40:12.327Z,7.87
2017-12-20T11:41:12.344Z,7.82
2017-12-20T11:42:12.364Z,7.77
2017-12-20T11:43:12.380Z,7.69
2017-12-20T11:44:12.398Z,7.85
2017-12-20T11:45:12.416Z,7.85
2017-12-20T11:46:12.436Z,7.90
2017-12-20T11:47:12.451Z,7.73
2017-12-20T11:48:12.470Z,7.79
2017-12-20T11:49:12.489Z,7.73
2017-12-20T11:50:12.505Z,7.66
2017-12-20T11:51:12.524Z,7.77
2017-12-20T11:52:12.542Z,7.85
2017-12-20T11:53:12.560Z,7.75
2017-12-20T11:54:12.578Z,7.77
2017-12-20T11:55:12.595Z,7.79
2017-12-20T11:56:12.614Z,7.79
2017-12-20T11:57:12.631Z,7.94
2017-12-20T11:58:12.648Z,7.88
2017-12-20T11:59:12.668Z,7.93
2017-12-20T12:00:12.685Z,7.93
2017-12-20T12:01:12.704Z,7.97
2017-12-20T12:02:12.722Z,7.95
2017-12-20T12:03:12.740Z,7.82
2017-12-20T12:04:12.757Z,7.80
2017-12-20T12:05:12.774Z,7.83
2017-12-20T12:06:12.791Z,7.91
2017-12-20T12:07:12.810Z,7.94
2017-12-20T12:08:12.828Z,7.87
2017-12-20T12:09:12.847Z,7.85
2017-12-20T12:10:12.865Z,7.95
2017-12-20T12:11:12.884Z,7.91
2017-12-20T12:12:12.951Z,7.90
2017-12-20T12:13:12.920Z,7.87
2017-12-20T12:14:12.936Z,7.85
2017-12-20T12:15:12.955Z,7.79
2017-12-20T12:16:12.973Z,7.79
2017-12-20T12:17:12.992Z,7.75
2017-12-20T12:18:13.008Z,7.79
2017-12-20T12:19:13.026Z,7.77
2017-12-20T12:20:13.045Z,7.82
2017-12-20T12:21:13.064Z,7.87
2017-12-20T12:22:13.080Z,7.88
2017-12-20T12:23:13.099Z,7.91
2017-12-20T12:24:13.116Z,7.80
2017-12-20T12:25:13.138Z,7.87
2017-12-20T12:26:13.152Z,7.87
2017-12-20T12:27:13.171Z,7.94
2017-12-20T12:28:13.190Z,7.98
2017-12-20T12:29:13.208Z,7.94
2017-12-20T12:30:13.224Z,7.98
2017-12-20T12:31:13.243Z,7.88
2017-12-20T12:32:13.264Z,7.85
2017-12-20T12:33:13.280Z,7.91
2017-12-20T12:34:13.299Z,7.88
2017-12-20T12:35:13.318Z,7.91
2017-12-20T12:36:13.383Z,7.91
2017-12-20T12:37:13.352Z,7.91
2017-12-20T12:38:13.368Z,7.97
2017-12-20T12:39:13.388Z,7.95
2017-12-20T12:40:13.406Z,7.88
2017-12-20T12:41:13.424Z,7.95
2017-12-20T12:42:13.442Z,7.95
2017-12-20T12:43:13.463Z,7.85
2017-12-20T12:44:13.479Z,7.91
2017-12-20T12:45:13.498Z,7.80
2017-12-20T12:46:13.513Z,7.91
2017-12-20T12:47:13.532Z,7.91
2017-12-20T12:48:13.550Z,7.88
2017-12-20T12:49:13.569Z,7.85
2017-12-20T12:50:13.587Z,7.77
2017-12-20T12:51:13.603Z,7.79
2017-12-20T12:52:13.622Z,7.98
2017-12-20T12:53:13.642Z,7.93
2017-12-20T12:54:13.659Z,7.95
2017-12-20T12:55:13.677Z,7.93
2017-12-20T12:56:13.695Z,8.01
2017-12-20T12:57:13.714Z,8.00
2017-12-20T12:58:13.731Z,7.82
2017-12-20T12:59:13.748Z,7.91
2017-12-20T13:00:13.766Z,7.97
2017-12-20T13:01:13.786Z,7.91
2017-12-20T13:02:13.802Z,7.94
2017-12-20T13:03:13.828Z,7.97
2017-12-20T13:04:13.846Z,7.93
2017-12-20T13:05:13.857Z,7.94
2017-12-20T13:06:13.875Z,7.91
2017-12-20T13:07:13.893Z,7.94
2017-12-20T13:08:13.911Z,7.94
2017-12-20T13:09:13.930Z,7.87
2017-12-20T13:10:13.947Z,7.95
2017-12-20T13:11:13.965Z,7.97
2017-12-20T13:12:13.982Z,7.91
2017-12-20T13:13:14.001Z,7.93
2017-12-20T13:14:14.018Z,7.95
2017-12-20T13:15:14.037Z,7.93
2017-12-20T13:16:14.055Z,7.93
2017-12-20T13:17:14.123Z,7.95
2017-12-20T13:18:14.090Z,7.90
2017-12-20T13:19:14.108Z,7.83
2017-12-20T13:20:14.126Z,7.90